Strona główna
METAR-TAF:

METAR-TAF

Lotnisko :

Port lotniczy Kristianstad

Kristianstad, Szwecja

Szerokość geograficzna: 55-55N, Długość geograficzna: 014-05E, wysokość: 23 m

Aktualna obserwacja pogody

Raport powstał 29 minut temu, godzina 21:20 UTC
Wiatr 11 kt od zachód
Temperatura 6°C
Wilgotność 93%
Ciśnienie 1020 hPa
Widzialność 10 km lub więcej

METAR: ESMK 232120Z AUTO 26011KT 9999 OVC004/// 06/05 Q1020

czas: 22:49 (21:49 UTC)

Prognoza

Raport powstał 4 godziny i 33 minut temu, godzina 17:16 UTC
Prognoza ważna od 23 godzina 18 UTC do 23 godzina 21 UTC
Wiatr 12 kt od zachód
Widzialność 10 km lub więcej
Przerywane chmury na wysokości 500 ft
Przejściowo
od 23 godzina 18 UTC do 23 godzina 21 UTC
Widzialność: 2500 m
Przerywane chmury na wysokości 300 ft
zamglenie

TAF: ESMK 231716Z 2318/2321 26012KT 9999 BKN005 TEMPO 2318/2321 2500 BR BKN003

Obserwacja i prognoza pogody dla ponad 4000 lotnisk (raport METAR i TAF).

Dostępne stacje oznaczono żółtymi i czerwonymi punktami na mapie.

Najedź kursorem aby zobaczyć nazwę stacji.

Kliknij aby zobaczyć obserwacje i prognozy pogody.

Aby zmienić mapę: kliknij na zielony przycisk z czarnym krzyżykiem, aby powiększyć; na zielony przycisk z myślnikiem, aby pomniejszyć; na zielone strzałki, aby przejść do map sąsiednich.


METAR-TAF: